Time,TemperatureF,DewpointF,PressureIn,WindDirection,WindDirectionDegrees,WindSpeedMPH,WindSpeedGustMPH,Humidity,HourlyPrecipIn,Conditions,Clouds,dailyrainin,SoftwareType,DateUTC
2013-07-16 00:53:00,77.0,75.0,30.31,ESE,102,0.0,-999.0,93,-99.99,,,-99.99,,2013-07-16 04:53:00,
2013-07-16 01:32:00,76.0,74.0,30.32,ESE,102,0.0,-999.0,94,-99.99,,,-99.99,,2013-07-16 05:32:00,
2013-07-16 01:52:00,76.0,74.0,30.32,ESE,102,0.0,-999.0,94,-99.99,,,-99.99,,2013-07-16 05:52:00,
2013-07-16 02:01:00,76.0,74.0,30.32,ESE,102,0.0,-999.0,94,-99.99,,,-99.99,,2013-07-16 06:01:00,
2013-07-16 03:01:00,75.0,73.0,30.32,ESE,102,0.0,-999.0,95,-99.99,,,-99.99,,2013-07-16 07:01:00,
2013-07-16 03:11:00,75.0,73.0,30.32,ESE,102,0.0,-999.0,95,-99.99,,,-99.99,,2013-07-16 07:11:00,
2013-07-16 03:32:00,75.0,73.0,30.32,ESE,102,0.0,-999.0,95,-99.99,,,-99.99,,2013-07-16 07:32:00,
2013-07-16 03:43:00,75.0,74.0,30.32,ESE,102,0.0,-999.0,96,-99.99,,,-99.99,,2013-07-16 07:43:00,
2013-07-16 04:01:00,75.0,74.0,30.32,ESE,102,0.0,-999.0,96,-99.99,,,-99.99,,2013-07-16 08:01:00,
2013-07-16 04:11:00,75.0,74.0,30.32,ESE,102,0.0,-999.0,96,-99.99,,,-99.99,,2013-07-16 08:11:00,
2013-07-16 04:22:00,75.0,74.0,30.32,ESE,102,0.0,-999.0,96,-99.99,,,-99.99,,2013-07-16 08:22:00,
2013-07-16 04:32:00,75.0,74.0,30.32,ESE,102,0.0,-999.0,96,-99.99,,,-99.99,,2013-07-16 08:32:00,
2013-07-16 04:52:00,75.0,74.0,30.31,East,100,0.0,-999.0,96,-99.99,,,-99.99,,2013-07-16 08:52:00,
2013-07-16 05:01:00,75.0,74.0,30.31,East,100,0.0,-999.0,96,-99.99,,,-99.99,,2013-07-16 09:01:00,
2013-07-16 05:32:00,74.0,73.0,30.32,East,100,0.0,-999.0,96,-99.99,,,-99.99,,2013-07-16 09:32:00,
2013-07-16 05:42:00,74.0,73.0,30.33,East,100,0.0,-999.0,96,-99.99,,,-99.99,,2013-07-16 09:42:00,
2013-07-16 05:52:00,74.0,73.0,30.33,East,100,0.0,-999.0,96,-99.99,,,-99.99,,2013-07-16 09:52:00,
2013-07-16 06:11:00,73.0,72.0,30.33,East,100,0.0,-999.0,96,-99.99,,,-99.99,,2013-07-16 10:11:00,
2013-07-16 06:43:00,73.0,72.0,30.33,East,100,0.0,-999.0,96,-99.99,,,-99.99,,2013-07-16 10:43:00,
2013-07-16 06:52:00,73.0,72.0,30.34,East,100,0.0,-999.0,96,-99.99,,,-99.99,,2013-07-16 10:52:00,
2013-07-16 07:22:00,73.0,72.0,30.34,ESE,102,0.0,-999.0,97,-99.99,,,-99.99,,2013-07-16 11:22:00,
2013-07-16 08:01:00,74.0,73.0,30.36,East,100,0.0,-999.0,97,-99.99,,,-99.99,,2013-07-16 12:01:00,
2013-07-16 08:53:00,75.0,74.0,30.37,East,100,0.0,-999.0,96,-99.99,,,-99.99,,2013-07-16 12:53:00,
2013-07-16 09:32:00,78.0,74.0,30.37,East,100,0.0,-999.0,88,-99.99,,,-99.99,,2013-07-16 13:32:00,
2013-07-16 10:02:00,80.0,73.0,30.37,East,100,0.0,-999.0,79,-99.99,,,-99.99,,2013-07-16 14:02:00,
2013-07-16 10:52:00,82.0,72.0,30.37,SE,140,0.0,-999.0,73,-99.99,,,-99.99,,2013-07-16 14:52:00,
2013-07-16 11:53:00,84.0,72.0,30.36,SSE,155,0.0,-999.0,68,-99.99,,,-99.99,,2013-07-16 15:53:00,
2013-07-16 12:43:00,85.0,72.0,30.36,SSE,164,0.0,-999.0,66,-99.99,,,-99.99,,2013-07-16 16:43:00,
2013-07-16 12:52:00,85.0,72.0,30.36,SSE,168,0.0,-999.0,65,-99.99,,,-99.99,,2013-07-16 16:52:00,
2013-07-16 13:43:00,85.0,71.0,30.35,South,175,0.0,-999.0,64,-99.99,,,-99.99,,2013-07-16 17:43:00,
2013-07-16 14:01:00,86.0,72.0,30.35,South,176,0.0,-999.0,63,-99.99,,,-99.99,,2013-07-16 18:01:00,
2013-07-16 14:43:00,87.0,71.0,30.34,SW,222,0.0,-999.0,60,-99.99,,,-99.99,,2013-07-16 18:43:00,
2013-07-16 14:52:00,87.0,71.0,30.34,SSW,210,0.0,-999.0,59,-99.99,,,-99.99,,2013-07-16 18:52:00,
2013-07-16 15:11:00,87.0,71.0,30.34,South,186,0.0,-999.0,59,-99.99,,,-99.99,,2013-07-16 19:11:00,
2013-07-16 15:22:00,88.0,71.0,30.34,South,188,0.0,-999.0,58,-99.99,,,-99.99,,2013-07-16 19:22:00,
2013-07-16 15:43:00,88.0,72.0,30.33,South,186,0.0,-999.0,59,-99.99,,,-99.99,,2013-07-16 19:43:00,
2013-07-16 16:43:00,88.0,71.0,30.32,SSW,212,0.0,-999.0,57,-99.99,,,-99.99,,2013-07-16 20:43:00,
2013-07-16 16:52:00,88.0,71.0,30.32,South,172,0.0,-999.0,57,-99.99,,,-99.99,,2013-07-16 20:52:00,
2013-07-16 17:11:00,89.0,71.0,30.32,South,174,0.0,-999.0,56,-99.99,,,-99.99,,2013-07-16 21:11:00,
2013-07-16 17:52:00,89.0,71.0,30.32,SSW,196,0.0,-999.0,55,-99.99,,,-99.99,,2013-07-16 21:52:00,
2013-07-16 18:43:00,88.0,71.0,30.32,South,176,0.0,-999.0,58,-99.99,,,-99.99,,2013-07-16 22:43:00,
2013-07-16 18:52:00,88.0,71.0,30.31,South,176,0.0,-999.0,58,-99.99,,,-99.99,,2013-07-16 22:52:00,
2013-07-16 19:22:00,88.0,72.0,30.31,South,186,0.0,-999.0,60,-99.99,,,-99.99,,2013-07-16 23:22:00,
2013-07-16 19:32:00,88.0,72.0,30.31,South,186,0.0,-999.0,59,-99.99,,,-99.99,,2013-07-16 23:32:00,
2013-07-16 19:43:00,88.0,72.0,30.30,South,186,0.0,-999.0,60,-99.99,,,-99.99,,2013-07-16 23:43:00,
2013-07-16 20:01:00,87.0,72.0,30.30,South,185,0.0,-999.0,62,-99.99,,,-99.99,,2013-07-17 00:01:00,
2013-07-16 20:33:00,86.0,72.0,30.30,South,185,0.0,-999.0,63,-99.99,,,-99.99,,2013-07-17 00:33:00,
2013-07-16 20:42:00,86.0,73.0,30.30,South,186,0.0,-999.0,65,-99.99,,,-99.99,,2013-07-17 00:42:00,
2013-07-16 20:52:00,86.0,73.0,30.31,SSW,199,0.0,-999.0,66,-99.99,,,-99.99,,2013-07-17 00:52:00,
2013-07-16 21:01:00,85.0,73.0,30.30,SSW,213,0.0,-999.0,67,-99.99,,,-99.99,,2013-07-17 01:01:00,
2013-07-16 21:11:00,85.0,73.0,30.30,SW,215,0.0,-999.0,67,-99.99,,,-99.99,,2013-07-17 01:11:00,
2013-07-16 21:22:00,85.0,73.0,30.31,SW,215,0.0,-999.0,68,-99.99,,,-99.99,,2013-07-17 01:22:00,
2013-07-16 21:32:00,84.0,73.0,30.31,SSW,192,0.0,-999.0,69,-99.99,,,-99.99,,2013-07-17 01:32:00,
2013-07-16 21:43:00,84.0,73.0,30.31,SSW,202,0.0,-999.0,70,-99.99,,,-99.99,,2013-07-17 01:43:00,
2013-07-16 21:53:00,84.0,74.0,30.31,SSW,199,0.0,-999.0,71,-99.99,,,-99.99,,2013-07-17 01:53:00,
2013-07-16 22:01:00,83.0,73.0,30.31,SW,216,0.0,-999.0,73,-99.99,,,-99.99,,2013-07-17 02:01:00,
2013-07-16 22:43:00,80.0,73.0,30.32,South,185,0.0,-999.0,79,-99.99,,,-99.99,,2013-07-17 02:43:00,
2013-07-16 22:53:00,80.0,73.0,30.32,South,186,0.0,-999.0,79,-99.99,,,-99.99,,2013-07-17 02:53:00,
2013-07-16 23:43:00,78.0,72.0,30.32,South,189,0.0,-999.0,82,-99.99,,,-99.99,,2013-07-17 03:43:00,